Time,TemperatureF,DewpointF,PressureIn,WindDirection,WindDirectionDegrees,WindSpeedMPH,WindSpeedGustMPH,Humidity,HourlyPrecipIn,Conditions,Clouds,dailyrainin,SoftwareType,DateUTC
2013-02-22 00:04:00,22.4,12.8,30.38,SE,131,2.0,4.0,66,0.00,,,-99.99,Weather View 32 v70,2013-02-22 05:04:00,
2013-02-22 00:09:00,22.5,12.9,30.38,SE,130,0.0,4.0,66,0.00,,,-99.99,Weather View 32 v70,2013-02-22 05:09:00,
2013-02-22 00:14:00,22.5,13.2,30.38,SE,130,1.0,4.0,67,0.00,,,-99.99,Weather View 32 v70,2013-02-22 05:14:00,
2013-02-22 00:19:00,22.5,13.2,30.38,SE,130,1.0,4.0,67,0.00,,,-99.99,Weather View 32 v70,2013-02-22 05:19:00,
2013-02-22 00:24:00,22.6,13.3,30.38,SE,130,1.0,4.0,67,0.00,,,-99.99,Weather View 32 v70,2013-02-22 05:24:00,
2013-02-22 00:29:00,22.5,13.2,30.38,SE,130,0.0,4.0,67,0.00,,,-99.99,Weather View 32 v70,2013-02-22 05:29:00,
2013-02-22 00:39:00,22.6,13.3,30.38,SE,131,1.0,4.0,67,0.00,,,-99.99,Weather View 32 v70,2013-02-22 05:39:00,
2013-02-22 00:44:00,22.6,13.3,30.38,SE,130,1.0,4.0,67,0.00,,,-99.99,Weather View 32 v70,2013-02-22 05:44:00,
2013-02-22 00:49:00,22.6,13.3,30.38,SE,130,1.0,4.0,67,0.00,,,-99.99,Weather View 32 v70,2013-02-22 05:49:00,
2013-02-22 00:54:00,22.5,13.2,30.38,SE,129,2.0,4.0,67,0.00,,,-99.99,Weather View 32 v70,2013-02-22 05:54:00,
2013-02-22 00:59:00,22.6,13.3,30.38,ESE,108,2.0,5.0,67,0.00,,,-99.99,Weather View 32 v70,2013-02-22 05:59:00,
2013-02-22 01:09:00,22.5,13.2,30.39,ESE,109,0.0,5.0,67,0.00,,,-99.99,Weather View 32 v70,2013-02-22 06:09:00,
2013-02-22 01:14:00,22.6,13.3,30.39,ESE,104,4.0,6.0,67,0.00,,,-99.99,Weather View 32 v70,2013-02-22 06:14:00,
2013-02-22 01:19:00,22.6,13.3,30.38,ESE,104,1.0,6.0,67,0.00,,,-99.99,Weather View 32 v70,2013-02-22 06:19:00,
2013-02-22 01:24:00,22.5,13.2,30.38,East,96,3.0,7.0,67,0.00,,,-99.99,Weather View 32 v70,2013-02-22 06:24:00,
2013-02-22 01:29:00,22.5,13.2,30.38,ESE,104,3.0,8.0,67,0.00,,,-99.99,Weather View 32 v70,2013-02-22 06:29:00,
2013-02-22 01:39:00,22.6,13.3,30.38,ESE,103,3.0,8.0,67,0.00,,,-99.99,Weather View 32 v70,2013-02-22 06:39:00,
2013-02-22 01:44:00,22.5,13.5,30.38,ESE,103,4.0,8.0,68,0.00,,,-99.99,Weather View 32 v70,2013-02-22 06:44:00,
2013-02-22 01:49:00,22.6,13.6,30.38,ESE,102,2.0,8.0,68,0.00,,,-99.99,Weather View 32 v70,2013-02-22 06:49:00,
2013-02-22 01:54:00,22.6,13.6,30.38,ESE,102,2.0,8.0,68,0.00,,,-99.99,Weather View 32 v70,2013-02-22 06:54:00,
2013-02-22 02:04:00,22.7,13.7,30.39,ENE,78,3.0,8.0,68,0.00,,,-99.99,Weather View 32 v70,2013-02-22 07:04:00,
2013-02-22 02:09:00,22.7,13.7,30.39,ESE,108,5.0,8.0,68,0.00,,,-99.99,Weather View 32 v70,2013-02-22 07:09:00,
2013-02-22 02:14:00,22.5,13.5,30.39,East,94,2.0,8.0,68,0.00,,,-99.99,Weather View 32 v70,2013-02-22 07:14:00,
2013-02-22 02:19:00,22.7,13.7,30.39,East,94,3.0,8.0,68,0.00,,,-99.99,Weather View 32 v70,2013-02-22 07:19:00,
2013-02-22 02:29:00,22.7,14.1,30.39,East,98,2.0,6.0,69,0.00,,,-99.99,Weather View 32 v70,2013-02-22 07:29:00,
2013-02-22 02:34:00,22.7,14.1,30.38,SE,127,2.0,6.0,69,0.00,,,-99.99,Weather View 32 v70,2013-02-22 07:34:00,
2013-02-22 02:39:00,22.7,14.1,30.39,SE,127,2.0,6.0,69,0.00,,,-99.99,Weather View 32 v70,2013-02-22 07:39:00,
2013-02-22 02:44:00,22.8,14.2,30.39,ESE,104,5.0,6.0,69,0.00,,,-99.99,Weather View 32 v70,2013-02-22 07:44:00,
2013-02-22 02:49:00,22.7,14.1,30.38,ENE,67,3.0,9.0,69,0.00,,,-99.99,Weather View 32 v70,2013-02-22 07:49:00,
2013-02-22 02:59:00,22.7,14.1,30.38,East,83,3.0,9.0,69,0.00,,,-99.99,Weather View 32 v70,2013-02-22 07:59:00,
2013-02-22 03:04:00,22.6,14.0,30.38,ESE,108,3.0,9.0,69,0.00,,,-99.99,Weather View 32 v70,2013-02-22 08:04:00,
2013-02-22 03:09:00,22.6,14.0,30.38,East,83,3.0,9.0,69,0.00,,,-99.99,Weather View 32 v70,2013-02-22 08:09:00,
2013-02-22 03:14:00,22.7,14.1,30.38,ENE,77,3.0,9.0,69,0.00,,,-99.99,Weather View 32 v70,2013-02-22 08:14:00,
2013-02-22 03:19:00,22.7,14.1,30.37,East,93,2.0,9.0,69,0.00,,,-99.99,Weather View 32 v70,2013-02-22 08:19:00,
2013-02-22 03:29:00,22.7,14.1,30.35,East,84,0.0,9.0,69,0.00,,,-99.99,Weather View 32 v70,2013-02-22 08:29:00,
2013-02-22 03:34:00,22.5,13.9,30.35,East,79,3.0,9.0,69,0.00,,,-99.99,Weather View 32 v70,2013-02-22 08:34:00,
2013-02-22 03:39:00,22.4,13.8,30.35,ESE,109,1.0,9.0,69,0.00,,,-99.99,Weather View 32 v70,2013-02-22 08:39:00,
2013-02-22 03:44:00,22.3,13.7,30.35,ESE,117,3.0,9.0,69,0.00,,,-99.99,Weather View 32 v70,2013-02-22 08:44:00,
2013-02-22 03:49:00,22.3,13.7,30.34,East,84,1.0,8.0,69,0.00,,,-99.99,Weather View 32 v70,2013-02-22 08:49:00,
2013-02-22 03:59:00,22.2,13.6,30.34,ENE,76,4.0,8.0,69,0.00,,,-99.99,Weather View 32 v70,2013-02-22 08:59:00,
2013-02-22 04:04:00,22.0,13.7,30.34,ENE,76,0.0,8.0,70,0.00,,,-99.99,Weather View 32 v70,2013-02-22 09:04:00,
2013-02-22 04:09:00,22.0,13.7,30.34,ENE,70,1.0,8.0,70,0.00,,,-99.99,Weather View 32 v70,2013-02-22 09:09:00,
2013-02-22 04:19:00,21.8,13.5,30.33,ENE,72,3.0,8.0,70,0.00,,,-99.99,Weather View 32 v70,2013-02-22 09:19:00,
2013-02-22 04:24:00,21.8,13.5,30.33,ENE,71,3.0,8.0,70,0.00,,,-99.99,Weather View 32 v70,2013-02-22 09:24:00,
2013-02-22 04:29:00,21.8,13.5,30.33,East,90,3.0,8.0,70,0.00,,,-99.99,Weather View 32 v70,2013-02-22 09:29:00,
2013-02-22 04:34:00,21.8,13.5,30.32,East,79,0.0,8.0,70,0.00,,,-99.99,Weather View 32 v70,2013-02-22 09:34:00,
2013-02-22 04:44:00,21.6,13.7,30.33,ENE,75,2.0,8.0,71,0.00,,,-99.99,Weather View 32 v70,2013-02-22 09:44:00,
2013-02-22 04:54:00,21.4,13.5,30.33,ENE,72,4.0,7.0,71,0.00,,,-99.99,Weather View 32 v70,2013-02-22 09:54:00,
2013-02-22 04:59:00,21.6,13.7,30.34,ENE,68,3.0,7.0,71,0.00,,,-99.99,Weather View 32 v70,2013-02-22 09:59:00,
2013-02-22 05:09:00,21.6,13.7,30.34,ENE,69,3.0,7.0,71,0.00,,,-99.99,Weather View 32 v70,2013-02-22 10:09:00,
2013-02-22 05:14:00,21.7,13.8,30.35,ENE,69,1.0,6.0,71,0.00,,,-99.99,Weather View 32 v70,2013-02-22 10:14:00,
2013-02-22 05:19:00,21.7,13.8,30.35,ENE,69,4.0,6.0,71,0.00,,,-99.99,Weather View 32 v70,2013-02-22 10:19:00,
2013-02-22 05:24:00,21.7,13.8,30.35,ENE,69,3.0,6.0,71,0.00,,,-99.99,Weather View 32 v70,2013-02-22 10:24:00,
2013-02-22 05:33:00,21.7,13.8,30.35,ENE,69,3.0,6.0,71,0.00,,,-99.99,Weather View 32 v70,2013-02-22 10:33:00,
2013-02-22 05:39:00,21.7,13.8,30.35,ENE,67,3.0,6.0,71,0.00,,,-99.99,Weather View 32 v70,2013-02-22 10:39:00,
2013-02-22 05:44:00,21.7,13.8,30.34,ENE,67,0.0,6.0,71,0.00,,,-99.99,Weather View 32 v70,2013-02-22 10:44:00,
2013-02-22 05:49:00,21.6,13.7,30.34,ENE,74,5.0,6.0,71,0.00,,,-99.99,Weather View 32 v70,2013-02-22 10:49:00,
2013-02-22 05:54:00,21.7,13.8,30.34,ENE,68,1.0,6.0,71,0.00,,,-99.99,Weather View 32 v70,2013-02-22 10:54:00,
2013-02-22 05:59:00,21.5,13.6,30.33,ENE,74,0.0,8.0,71,0.00,,,-99.99,Weather View 32 v70,2013-02-22 10:59:00,
2013-02-22 06:09:00,21.5,13.6,30.34,ENE,77,3.0,8.0,71,0.00,,,-99.99,Weather View 32 v70,2013-02-22 11:09:00,
2013-02-22 06:14:00,21.6,14.0,30.33,ENE,72,7.0,8.0,72,0.00,,,-99.99,Weather View 32 v70,2013-02-22 11:14:00,
2013-02-22 06:19:00,21.6,14.0,30.33,ENE,63,2.0,8.0,72,0.00,,,-99.99,Weather View 32 v70,2013-02-22 11:19:00,
2013-02-22 06:29:00,21.7,13.8,30.32,ENE,70,3.0,8.0,71,0.00,,,-99.99,Weather View 32 v70,2013-02-22 11:29:00,
2013-02-22 06:34:00,21.8,13.8,30.31,ENE,68,5.0,8.0,71,0.00,,,-99.99,Weather View 32 v70,2013-02-22 11:34:00,
2013-02-22 06:39:00,21.6,14.0,30.30,ENE,66,5.0,10.0,72,0.00,,,-99.99,Weather View 32 v70,2013-02-22 11:39:00,
2013-02-22 06:44:00,21.7,13.8,30.31,East,89,4.0,11.0,71,0.00,,,-99.99,Weather View 32 v70,2013-02-22 11:44:00,
2013-02-22 06:49:00,21.7,13.8,30.30,ENE,65,6.0,11.0,71,0.00,,,-99.99,Weather View 32 v70,2013-02-22 11:49:00,
2013-02-22 06:59:00,21.9,14.3,30.30,ENE,61,4.0,11.0,72,0.00,,,-99.99,Weather View 32 v70,2013-02-22 11:59:00,
2013-02-22 07:04:00,21.8,13.8,30.30,ENE,69,5.0,11.0,71,0.00,,,-99.99,Weather View 32 v70,2013-02-22 12:04:00,
2013-02-22 07:09:00,21.9,14.3,30.30,ENE,72,3.0,11.0,72,0.00,,,-99.99,Weather View 32 v70,2013-02-22 12:09:00,
2013-02-22 07:14:00,22.0,14.4,30.30,ENE,72,5.0,11.0,72,0.00,,,-99.99,Weather View 32 v70,2013-02-22 12:14:00,
2013-02-22 07:24:00,22.0,14.4,30.29,ENE,66,5.0,11.0,72,0.00,,,-99.99,Weather View 32 v70,2013-02-22 12:24:00,
2013-02-22 07:29:00,22.1,14.5,30.29,ENE,63,2.0,11.0,72,0.00,,,-99.99,Weather View 32 v70,2013-02-22 12:29:00,
2013-02-22 07:34:00,22.2,14.6,30.29,ENE,74,3.0,11.0,72,0.00,,,-99.99,Weather View 32 v70,2013-02-22 12:34:00,
2013-02-22 07:44:00,22.4,14.7,30.30,ENE,71,6.0,11.0,72,0.00,,,-99.99,Weather View 32 v70,2013-02-22 12:44:00,
2013-02-22 07:49:00,22.5,14.8,30.30,ENE,57,1.0,11.0,72,0.00,,,-99.99,Weather View 32 v70,2013-02-22 12:49:00,
2013-02-22 07:59:00,22.7,15.0,30.28,ENE,70,1.0,11.0,72,0.00,,,-99.99,Weather View 32 v70,2013-02-22 12:59:00,
2013-02-22 08:04:00,22.8,15.1,30.28,ENE,66,0.0,11.0,72,0.00,,,-99.99,Weather View 32 v70,2013-02-22 13:04:00,
2013-02-22 08:09:00,22.8,15.1,30.28,ENE,67,1.0,11.0,72,0.00,,,-99.99,Weather View 32 v70,2013-02-22 13:09:00,
2013-02-22 08:19:00,23.2,15.2,30.27,East,98,1.0,11.0,71,0.00,,,-99.99,Weather View 32 v70,2013-02-22 13:19:00,
2013-02-22 08:24:00,23.3,15.6,30.27,ENE,67,7.0,12.0,72,0.00,,,-99.99,Weather View 32 v70,2013-02-22 13:24:00,
2013-02-22 08:29:00,23.4,15.4,30.27,ENE,75,7.0,12.0,71,0.00,,,-99.99,Weather View 32 v70,2013-02-22 13:29:00,
2013-02-22 08:35:00,23.6,15.6,30.27,East,86,5.0,12.0,71,0.00,,,-99.99,Weather View 32 v70,2013-02-22 13:35:00,
2013-02-22 08:44:00,24.0,15.6,30.27,ENE,65,10.0,12.0,70,0.00,,,-99.99,Weather View 32 v70,2013-02-22 13:44:00,
2013-02-22 08:49:00,24.2,15.8,30.27,ENE,74,7.0,12.0,70,0.00,,,-99.99,Weather View 32 v70,2013-02-22 13:49:00,
2013-02-22 08:54:00,24.3,15.9,30.26,ENE,71,8.0,14.0,70,0.00,,,-99.99,Weather View 32 v70,2013-02-22 13:54:00,
2013-02-22 08:59:00,24.5,15.8,30.27,East,96,6.0,14.0,69,0.00,,,-99.99,Weather View 32 v70,2013-02-22 13:59:00,
2013-02-22 09:04:00,24.6,15.9,30.27,ENE,68,3.0,14.0,69,0.00,,,-99.99,Weather View 32 v70,2013-02-22 14:04:00,
2013-02-22 09:14:00,25.0,16.3,30.26,East,97,3.0,14.0,69,0.00,,,-99.99,Weather View 32 v70,2013-02-22 14:14:00,
2013-02-22 09:19:00,25.2,16.5,30.27,ENE,73,3.0,14.0,69,0.00,,,-99.99,Weather View 32 v70,2013-02-22 14:19:00,
2013-02-22 09:24:00,25.5,16.4,30.26,ENE,72,6.0,14.0,68,0.00,,,-99.99,Weather View 32 v70,2013-02-22 14:24:00,
2013-02-22 09:34:00,26.2,17.1,30.25,ENE,77,5.0,14.0,68,0.00,,,-99.99,Weather View 32 v70,2013-02-22 14:34:00,
2013-02-22 09:39:00,26.7,17.2,30.24,ENE,64,7.0,14.0,67,0.00,,,-99.99,Weather View 32 v70,2013-02-22 14:39:00,
2013-02-22 09:44:00,27.0,17.2,30.23,ENE,76,5.0,14.0,66,0.00,,,-99.99,Weather View 32 v70,2013-02-22 14:44:00,
2013-02-22 09:49:00,27.3,17.4,30.24,East,89,5.0,14.0,66,0.00,,,-99.99,Weather View 32 v70,2013-02-22 14:49:00,
2013-02-22 09:59:00,28.1,17.8,30.22,ENE,72,4.0,15.0,65,0.00,,,-99.99,Weather View 32 v70,2013-02-22 14:59:00,
2013-02-22 10:04:00,28.6,18.3,30.21,ENE,72,9.0,15.0,65,0.00,,,-99.99,Weather View 32 v70,2013-02-22 15:04:00,
2013-02-22 10:09:00,28.9,18.2,30.21,East,91,4.0,15.0,64,0.00,,,-99.99,Weather View 32 v70,2013-02-22 15:09:00,
2013-02-22 10:19:00,29.6,18.9,30.20,East,96,8.0,15.0,64,0.00,,,-99.99,Weather View 32 v70,2013-02-22 15:19:00,
2013-02-22 10:24:00,29.8,18.7,30.19,East,97,10.0,15.0,63,0.00,,,-99.99,Weather View 32 v70,2013-02-22 15:24:00,
2013-02-22 10:29:00,29.9,18.8,30.19,East,98,3.0,15.0,63,0.00,,,-99.99,Weather View 32 v70,2013-02-22 15:29:00,
2013-02-22 10:36:00,30.3,18.8,30.18,ENE,73,7.0,15.0,62,0.00,,,-99.99,Weather View 32 v70,2013-02-22 15:36:00,
2013-02-22 10:44:00,31.0,19.1,30.17,ESE,118,8.0,15.0,61,0.00,,,-99.99,Weather View 32 v70,2013-02-22 15:44:00,
2013-02-22 10:49:00,31.2,19.3,30.17,East,79,3.0,15.0,61,0.00,,,-99.99,Weather View 32 v70,2013-02-22 15:49:00,
2013-02-22 10:54:00,31.3,19.0,30.17,ESE,111,10.0,16.0,60,0.00,,,-99.99,Weather View 32 v70,2013-02-22 15:54:00,
2013-02-22 11:04:00,31.6,18.9,30.16,ENE,71,7.0,16.0,59,0.00,,,-99.99,Weather View 32 v70,2013-02-22 16:04:00,
2013-02-22 11:09:00,31.7,19.4,30.16,ENE,67,5.0,16.0,60,0.00,,,-99.99,Weather View 32 v70,2013-02-22 16:09:00,
2013-02-22 11:14:00,31.8,19.5,30.16,ENE,77,7.0,16.0,60,0.00,,,-99.99,Weather View 32 v70,2013-02-22 16:14:00,
2013-02-22 11:24:00,32.1,19.4,30.16,ENE,70,10.0,16.0,59,0.00,,,-99.99,Weather View 32 v70,2013-02-22 16:24:00,
2013-02-22 11:29:00,32.1,19.0,30.15,East,96,10.0,16.0,58,0.00,,,-99.99,Weather View 32 v70,2013-02-22 16:29:00,
2013-02-22 11:34:00,32.3,19.6,30.15,East,79,7.0,16.0,59,0.00,,,-99.99,Weather View 32 v70,2013-02-22 16:34:00,
2013-02-22 11:39:00,32.5,19.8,30.15,ENE,78,6.0,16.0,59,0.00,,,-99.99,Weather View 32 v70,2013-02-22 16:39:00,
2013-02-22 11:49:00,33.1,19.9,30.14,ENE,69,4.0,16.0,58,0.00,,,-99.99,Weather View 32 v70,2013-02-22 16:49:00,
2013-02-22 11:54:00,33.3,19.7,30.14,ENE,67,4.0,16.0,57,0.00,,,-99.99,Weather View 32 v70,2013-02-22 16:54:00,
2013-02-22 11:59:00,33.4,19.8,30.13,East,97,6.0,16.0,57,0.00,,,-99.99,Weather View 32 v70,2013-02-22 16:59:00,
2013-02-22 12:09:00,33.5,19.5,30.11,East,93,9.0,18.0,56,0.00,,,-99.99,Weather View 32 v70,2013-02-22 17:09:00,
2013-02-22 12:14:00,33.7,20.1,30.12,East,92,9.0,18.0,57,0.00,,,-99.99,Weather View 32 v70,2013-02-22 17:14:00,
2013-02-22 12:19:00,34.1,20.4,30.12,East,96,8.0,18.0,57,0.00,,,-99.99,Weather View 32 v70,2013-02-22 17:19:00,
2013-02-22 12:29:00,34.9,20.4,30.12,SE,141,8.0,18.0,55,0.00,,,-99.99,Weather View 32 v70,2013-02-22 17:29:00,
2013-02-22 12:34:00,35.0,20.5,30.11,SE,127,6.0,18.0,55,0.00,,,-99.99,Weather View 32 v70,2013-02-22 17:34:00,
2013-02-22 12:39:00,34.9,19.9,30.10,East,95,10.0,18.0,54,0.00,,,-99.99,Weather View 32 v70,2013-02-22 17:39:00,
2013-02-22 12:44:00,34.7,19.7,30.10,East,83,9.0,18.0,54,0.00,,,-99.99,Weather View 32 v70,2013-02-22 17:44:00,
2013-02-22 12:49:00,34.4,19.5,30.10,East,81,5.0,18.0,54,0.00,,,-99.99,Weather View 32 v70,2013-02-22 17:49:00,
2013-02-22 12:59:00,34.1,19.6,30.11,SE,142,3.0,18.0,55,0.00,,,-99.99,Weather View 32 v70,2013-02-22 17:59:00,
2013-02-22 13:04:00,34.0,19.5,30.11,ESE,117,3.0,18.0,55,0.00,,,-99.99,Weather View 32 v70,2013-02-22 18:04:00,
2013-02-22 13:09:00,34.0,19.5,30.11,SE,145,6.0,18.0,55,0.00,,,-99.99,Weather View 32 v70,2013-02-22 18:09:00,
2013-02-22 13:19:00,33.9,20.7,30.11,ESE,111,8.0,16.0,58,0.00,,,-99.99,Weather View 32 v70,2013-02-22 18:19:00,
2013-02-22 13:24:00,33.7,21.3,30.11,SE,124,6.0,16.0,60,0.00,,,-99.99,Weather View 32 v70,2013-02-22 18:24:00,
2013-02-22 13:34:00,33.5,23.0,30.09,ENE,74,4.0,14.0,65,0.00,,,-99.99,Weather View 32 v70,2013-02-22 18:34:00,
2013-02-22 13:39:00,33.4,22.9,30.09,East,90,3.0,14.0,65,0.00,,,-99.99,Weather View 32 v70,2013-02-22 18:39:00,
2013-02-22 13:44:00,33.2,23.4,30.10,East,100,1.0,14.0,67,0.00,,,-99.99,Weather View 32 v70,2013-02-22 18:44:00,
2013-02-22 13:49:00,32.7,22.9,30.10,East,99,1.0,14.0,67,0.00,,,-99.99,Weather View 32 v70,2013-02-22 18:49:00,
2013-02-22 13:59:00,32.3,23.6,30.11,North,8,0.0,14.0,70,0.00,,,-99.99,Weather View 32 v70,2013-02-22 18:59:00,
2013-02-22 14:04:00,32.4,24.0,30.11,North,7,0.0,14.0,71,0.00,,,-99.99,Weather View 32 v70,2013-02-22 19:04:00,
2013-02-22 14:09:00,32.6,24.6,30.10,North,7,1.0,14.0,72,0.00,,,-99.99,Weather View 32 v70,2013-02-22 19:09:00,
2013-02-22 14:14:00,33.1,25.4,30.09,East,94,3.0,14.0,73,0.00,,,-99.99,Weather View 32 v70,2013-02-22 19:14:00,
2013-02-22 14:24:00,34.3,26.5,30.09,East,93,2.0,12.0,73,0.00,,,-99.99,Weather View 32 v70,2013-02-22 19:24:00,
2013-02-22 14:29:00,34.1,26.3,30.09,North,0,0.0,9.0,73,0.00,,,-99.99,Weather View 32 v70,2013-02-22 19:29:00,
2013-02-22 14:34:00,33.9,26.5,30.09,ENE,60,3.0,9.0,74,0.01,,,-99.99,Weather View 32 v70,2013-02-22 19:34:00,
2013-02-22 14:44:00,34.3,26.9,30.08,ENE,61,0.0,5.0,74,0.01,,,-99.99,Weather View 32 v70,2013-02-22 19:44:00,
2013-02-22 14:49:00,34.5,27.1,30.07,East,84,4.0,5.0,74,0.01,,,-99.99,Weather View 32 v70,2013-02-22 19:49:00,
2013-02-22 14:59:00,35.0,27.5,30.07,ENE,76,3.0,5.0,74,0.01,,,-99.99,Weather View 32 v70,2013-02-22 19:59:00,
2013-02-22 15:04:00,35.2,27.7,30.06,East,87,1.0,6.0,74,0.01,,,-99.99,Weather View 32 v70,2013-02-22 20:04:00,
2013-02-22 15:09:00,35.3,27.8,30.06,East,91,4.0,6.0,74,0.01,,,-99.99,Weather View 32 v70,2013-02-22 20:09:00,
2013-02-22 15:19:00,35.4,27.9,30.06,SSE,148,5.0,10.0,74,0.01,,,-99.99,Weather View 32 v70,2013-02-22 20:19:00,
2013-02-22 15:24:00,35.3,28.2,30.05,East,93,2.0,12.0,75,0.02,,,-99.99,Weather View 32 v70,2013-02-22 20:24:00,
2013-02-22 15:29:00,35.3,28.2,30.05,ESE,110,3.0,12.0,75,0.02,,,-99.99,Weather View 32 v70,2013-02-22 20:29:00,
2013-02-22 15:38:00,35.4,28.3,30.05,ESE,108,4.0,12.0,75,0.01,,,-99.99,Weather View 32 v70,2013-02-22 20:38:00,
2013-02-22 15:44:00,35.3,27.8,30.04,SE,137,3.0,12.0,74,0.01,,,-99.99,Weather View 32 v70,2013-02-22 20:44:00,
2013-02-22 15:49:00,35.3,27.8,30.04,ESE,111,4.0,12.0,74,0.01,,,-99.99,Weather View 32 v70,2013-02-22 20:49:00,
2013-02-22 15:59:00,35.2,27.7,30.04,ESE,123,4.0,12.0,74,0.01,,,-99.99,Weather View 32 v70,2013-02-22 20:59:00,
2013-02-22 16:04:00,35.2,27.4,30.04,SE,131,5.0,12.0,73,0.01,,,-99.99,Weather View 32 v70,2013-02-22 21:04:00,
2013-02-22 16:09:00,35.2,27.4,30.04,ESE,115,3.0,12.0,73,0.01,,,-99.99,Weather View 32 v70,2013-02-22 21:09:00,
2013-02-22 16:14:00,35.1,27.3,30.04,ESE,123,4.0,12.0,73,0.01,,,-99.99,Weather View 32 v70,2013-02-22 21:14:00,
2013-02-22 16:24:00,35.0,26.9,30.04,SE,134,5.0,12.0,72,0.00,,,-99.99,Weather View 32 v70,2013-02-22 21:24:00,
2013-02-22 16:29:00,34.9,26.8,30.04,SE,144,4.0,12.0,72,0.00,,,-99.99,Weather View 32 v70,2013-02-22 21:29:00,
2013-02-22 16:39:00,34.9,26.4,30.04,ESE,113,1.0,11.0,71,0.00,,,-99.99,Weather View 32 v70,2013-02-22 21:39:00,
2013-02-22 16:49:00,34.9,26.4,30.03,SE,145,4.0,11.0,71,0.00,,,-99.99,Weather View 32 v70,2013-02-22 21:49:00,
2013-02-22 16:54:00,34.8,26.4,30.03,SE,130,4.0,10.0,71,0.00,,,-99.99,Weather View 32 v70,2013-02-22 21:54:00,
2013-02-22 17:04:00,34.8,26.4,30.03,ESE,116,3.0,10.0,71,0.00,,,-99.99,Weather View 32 v70,2013-02-22 22:04:00,
2013-02-22 17:09:00,34.8,26.4,30.03,ESE,120,5.0,10.0,71,0.00,,,-99.99,Weather View 32 v70,2013-02-22 22:09:00,
2013-02-22 17:14:00,34.7,26.3,30.03,SE,143,1.0,10.0,71,0.00,,,-99.99,Weather View 32 v70,2013-02-22 22:14:00,
2013-02-22 17:24:00,34.7,26.3,30.03,SE,131,3.0,10.0,71,0.00,,,-99.99,Weather View 32 v70,2013-02-22 22:24:00,
2013-02-22 17:29:00,34.8,26.0,30.03,SSE,154,3.0,10.0,70,0.00,,,-99.99,Weather View 32 v70,2013-02-22 22:29:00,
2013-02-22 17:39:00,34.7,25.9,30.03,SE,124,3.0,8.0,70,0.00,,,-99.99,Weather View 32 v70,2013-02-22 22:39:00,
2013-02-22 17:49:00,34.7,26.3,30.03,SSE,155,3.0,8.0,71,0.00,,,-99.99,Weather View 32 v70,2013-02-22 22:49:00,
2013-02-22 17:54:00,34.7,26.3,30.03,SSE,153,3.0,8.0,71,0.00,,,-99.99,Weather View 32 v70,2013-02-22 22:54:00,
2013-02-22 18:04:00,34.7,26.6,30.03,ESE,102,3.0,8.0,72,0.00,,,-99.99,Weather View 32 v70,2013-02-22 23:04:00,
2013-02-22 18:09:00,34.7,26.3,30.03,SE,131,2.0,8.0,71,0.00,,,-99.99,Weather View 32 v70,2013-02-22 23:09:00,
2013-02-22 18:14:00,34.7,26.6,30.03,SE,133,3.0,8.0,72,0.00,,,-99.99,Weather View 32 v70,2013-02-22 23:14:00,
2013-02-22 18:24:00,34.7,26.6,30.03,SE,126,3.0,6.0,72,0.00,,,-99.99,Weather View 32 v70,2013-02-22 23:24:00,
2013-02-22 18:29:00,34.7,26.6,30.03,ESE,116,3.0,6.0,72,0.00,,,-99.99,Weather View 32 v70,2013-02-22 23:29:00,
2013-02-22 18:34:00,34.8,26.7,30.03,SE,131,4.0,10.0,72,0.00,,,-99.99,Weather View 32 v70,2013-02-22 23:34:00,
2013-02-22 18:40:00,34.8,26.7,30.03,SE,131,2.0,10.0,72,0.00,,,-99.99,Weather View 32 v70,2013-02-22 23:40:00,
2013-02-22 18:49:00,34.8,26.7,30.03,SE,124,4.0,10.0,72,0.00,,,-99.99,Weather View 32 v70,2013-02-22 23:49:00,
2013-02-22 18:54:00,34.9,26.8,30.03,SE,133,3.0,10.0,72,0.00,,,-99.99,Weather View 32 v70,2013-02-22 23:54:00,
2013-02-22 18:59:00,34.9,27.1,30.03,ESE,123,1.0,10.0,73,0.00,,,-99.99,Weather View 32 v70,2013-02-22 23:59:00,
2013-02-22 19:04:00,34.8,27.0,30.03,SSE,149,5.0,10.0,73,0.00,,,-99.99,Weather View 32 v70,2013-02-23 00:04:00,
2013-02-22 19:14:00,34.9,27.1,30.03,SE,144,6.0,10.0,73,0.00,,,-99.99,Weather View 32 v70,2013-02-23 00:14:00,
2013-02-22 19:19:00,34.9,27.1,30.03,SSE,162,4.0,10.0,73,0.00,,,-99.99,Weather View 32 v70,2013-02-23 00:19:00,
2013-02-22 19:24:00,34.9,27.1,30.03,ESE,122,6.0,10.0,73,0.00,,,-99.99,Weather View 32 v70,2013-02-23 00:24:00,
2013-02-22 19:34:00,34.9,27.1,30.03,SE,142,4.0,9.0,73,0.00,,,-99.99,Weather View 32 v70,2013-02-23 00:34:00,
2013-02-22 19:39:00,34.9,27.5,30.03,SE,136,3.0,9.0,74,0.00,,,-99.99,Weather View 32 v70,2013-02-23 00:39:00,
2013-02-22 19:44:00,34.9,27.5,30.03,SSE,163,4.0,9.0,74,0.00,,,-99.99,Weather View 32 v70,2013-02-23 00:44:00,
2013-02-22 19:49:00,34.8,27.0,30.03,SE,135,3.0,9.0,73,0.00,,,-99.99,Weather View 32 v70,2013-02-23 00:49:00,
2013-02-22 19:59:00,34.9,27.1,30.03,ESE,106,3.0,9.0,73,0.00,,,-99.99,Weather View 32 v70,2013-02-23 00:59:00,
2013-02-22 20:04:00,34.9,27.5,30.03,ESE,105,2.0,9.0,74,0.00,,,-99.99,Weather View 32 v70,2013-02-23 01:04:00,
2013-02-22 20:09:00,34.8,27.0,30.03,SE,140,3.0,9.0,73,0.00,,,-99.99,Weather View 32 v70,2013-02-23 01:09:00,
2013-02-22 20:19:00,34.9,27.5,30.02,East,79,5.0,8.0,74,0.00,,,-99.99,Weather View 32 v70,2013-02-23 01:19:00,
2013-02-22 20:24:00,34.9,27.5,30.02,ESE,108,3.0,8.0,74,0.00,,,-99.99,Weather View 32 v70,2013-02-23 01:24:00,
2013-02-22 20:29:00,34.9,27.5,30.02,SE,132,4.0,8.0,74,0.00,,,-99.99,Weather View 32 v70,2013-02-23 01:29:00,
2013-02-22 20:34:00,35.0,27.5,30.02,SE,136,4.0,8.0,74,0.00,,,-99.99,Weather View 32 v70,2013-02-23 01:34:00,
2013-02-22 20:42:00,35.0,27.5,30.02,ESE,108,2.0,8.0,74,0.00,,,-99.99,Weather View 32 v70,2013-02-23 01:42:00,
2013-02-22 20:49:00,35.1,28.0,30.02,SSE,164,4.0,8.0,75,0.00,,,-99.99,Weather View 32 v70,2013-02-23 01:49:00,
2013-02-22 20:54:00,35.1,28.0,30.02,SSE,158,5.0,7.0,75,0.00,,,-99.99,Weather View 32 v70,2013-02-23 01:54:00,
2013-02-22 20:59:00,35.1,27.6,30.02,South,172,3.0,7.0,74,0.00,,,-99.99,Weather View 32 v70,2013-02-23 01:59:00,
2013-02-22 21:09:00,35.1,28.0,30.02,SE,130,4.0,9.0,75,0.00,,,-99.99,Weather View 32 v70,2013-02-23 02:09:00,
2013-02-22 21:19:00,35.1,28.0,30.02,SE,142,3.0,9.0,75,0.00,,,-99.99,Weather View 32 v70,2013-02-23 02:19:00,
2013-02-22 21:29:00,35.1,28.0,30.02,SE,141,2.0,9.0,75,0.00,,,-99.99,Weather View 32 v70,2013-02-23 02:29:00,
2013-02-22 21:39:00,35.0,27.5,30.01,SE,130,3.0,9.0,74,0.00,,,-99.99,Weather View 32 v70,2013-02-23 02:39:00,
2013-02-22 21:44:00,35.0,27.5,30.01,SSE,148,2.0,9.0,74,0.00,,,-99.99,Weather View 32 v70,2013-02-23 02:44:00,
2013-02-22 21:49:00,35.0,27.5,30.02,SSE,147,1.0,9.0,74,0.00,,,-99.99,Weather View 32 v70,2013-02-23 02:49:00,
2013-02-22 21:59:00,34.9,27.5,30.01,SE,136,2.0,9.0,74,0.00,,,-99.99,Weather View 32 v70,2013-02-23 02:59:00,
2013-02-22 22:04:00,34.9,27.5,30.01,SE,139,3.0,9.0,74,0.00,,,-99.99,Weather View 32 v70,2013-02-23 03:04:00,
2013-02-22 22:09:00,34.9,27.8,30.02,SSE,157,5.0,9.0,75,0.00,,,-99.99,Weather View 32 v70,2013-02-23 03:09:00,
2013-02-22 22:19:00,34.7,27.3,30.02,SSE,148,1.0,7.0,74,0.00,,,-99.99,Weather View 32 v70,2013-02-23 03:19:00,
2013-02-22 22:24:00,34.7,27.3,30.02,SSE,155,3.0,7.0,74,0.00,,,-99.99,Weather View 32 v70,2013-02-23 03:24:00,
2013-02-22 22:29:00,34.7,27.6,30.01,SSE,162,2.0,7.0,75,0.00,,,-99.99,Weather View 32 v70,2013-02-23 03:29:00,
2013-02-22 22:34:00,34.7,27.6,30.01,SE,132,1.0,7.0,75,0.00,,,-99.99,Weather View 32 v70,2013-02-23 03:34:00,
2013-02-22 22:43:00,34.8,27.7,30.01,SSE,148,3.0,7.0,75,0.00,,,-99.99,Weather View 32 v70,2013-02-23 03:43:00,
2013-02-22 22:49:00,34.7,27.3,30.01,SSE,149,1.0,7.0,74,0.00,,,-99.99,Weather View 32 v70,2013-02-23 03:49:00,
2013-02-22 22:54:00,34.7,27.3,30.01,SSE,162,3.0,7.0,74,0.00,,,-99.99,Weather View 32 v70,2013-02-23 03:54:00,
2013-02-22 22:59:00,34.7,27.3,30.01,SSE,162,1.0,7.0,74,0.00,,,-99.99,Weather View 32 v70,2013-02-23 03:59:00,
2013-02-22 23:09:00,34.7,27.3,30.01,SE,131,5.0,7.0,74,0.00,,,-99.99,Weather View 32 v70,2013-02-23 04:09:00,
2013-02-22 23:14:00,34.7,27.3,30.00,SSE,154,1.0,6.0,74,0.00,,,-99.99,Weather View 32 v70,2013-02-23 04:14:00,
2013-02-22 23:19:00,34.7,27.6,30.00,SE,142,0.0,6.0,75,0.00,,,-99.99,Weather View 32 v70,2013-02-23 04:19:00,
2013-02-22 23:29:00,34.7,27.3,30.01,SE,142,0.0,5.0,74,0.00,,,-99.99,Weather View 32 v70,2013-02-23 04:29:00,
2013-02-22 23:34:00,34.6,27.5,30.00,SE,142,0.0,5.0,75,0.00,,,-99.99,Weather View 32 v70,2013-02-23 04:34:00,
2013-02-22 23:39:00,34.7,27.3,30.00,SE,142,1.0,5.0,74,0.00,,,-99.99,Weather View 32 v70,2013-02-23 04:39:00,
2013-02-22 23:49:00,34.7,27.3,30.00,SSE,155,2.0,5.0,74,0.00,,,-99.99,Weather View 32 v70,2013-02-23 04:49:00,
2013-02-22 23:54:00,34.7,27.6,30.00,SSE,155,0.0,5.0,75,0.00,,,-99.99,Weather View 32 v70,2013-02-23 04:54:00,
2013-02-22 23:59:00,34.7,27.6,30.00,SSE,157,2.0,5.0,75,0.00,,,-99.99,Weather View 32 v70,2013-02-23 04:59:00,